• Join FlightAware (Why Join?)
  • Login
  • US Flag 
03:34PM EST


 

Airport Tracker/Info


-or-


 

Live Flight TrackerFlight Track Log ✈ N2574R ✈ 28-Sep-2013 ✈ KAPF - KBCT

Flight Track Log - Related Links

Times and Time Zones

All times are in EDT time to prevent confusion due to time zone crossing. See the N2574R flight status page for this flight to view local times or setup timezone preferences in your user account.

Time Position Orientation Groundspeed Altitude Reporting Facility
EDT Latitude Longitude Course Direction KTS MPH feet Rate Location/Type
03:35PM 26.1508 -81.6889 126° Southeast 93 107 1,900  Level Miami Center
03:36PM 26.1372 -81.6631 120° Southeast 93 107 2,300 500 Climbing Miami Center
03:37PM 26.1256 -81.6394 119° Southeast 93 107 2,900 550 Climbing Miami Center
03:38PM 26.1847 -81.5468 138° Southeast  Level Estimated
03:38PM 26.1136 -81.6181 122° Southeast 88 101 3,400  Level Miami Center
03:39PM 26.1642 -81.5157 126° Southeast  Level FlightAware Approximate
03:39PM 26.1061 -81.5947 110° East 83 96 3,800  Level Miami Center
03:40PM 26.1437 -81.4846 126° Southeast  Level FlightAware Approximate
03:40PM 26.1150 -81.5719 67° East 70 81 4,200  Level Miami Center
03:41PM 26.1303 -81.5539 47° Northeast 71 82 4,600 400 Climbing Miami Center
03:42PM 26.1456 -81.5339 50° Northeast 79 91 5,000 400 Climbing Miami Center
03:43PM 26.1628 -81.5158 43° Northeast 79 91 5,400 450 Climbing Miami Center
03:44PM 26.1758 -81.5003 47° Northeast 79 91 5,900 450 Climbing Miami Center
03:45PM 26.1911 -81.4822 47° Northeast 79 91 6,300 350 Climbing Miami Center
03:46PM 26.2061 -81.4644 47° Northeast 79 91 6,600 350 Climbing Miami Center
03:47PM 26.2256 -81.4467 39° Northeast 79 91 7,000 200 Climbing Miami Center
03:48PM 26.2469 -81.4267 40° Northeast 90 104 7,000  Level Miami Center
03:49PM 26.2708 -81.3975 48° Northeast 107 123 7,000  Level Miami Center
03:50PM 26.2950 -81.3636 51° Northeast 119 137 7,000  Level Miami Center
03:51PM 26.3167 -81.3344 50° Northeast 119 137 7,000  Level Miami Center
03:52PM 26.3447 -81.3100 38° Northeast 119 137 7,000  Level Miami Center
03:53PM 26.3706 -81.2853 41° Northeast 119 137 7,000  Level Miami Center
03:54PM 26.3964 -81.2608 40° Northeast 119 137 7,000  Level Miami Center
03:55PM 26.4219 -81.2386 38° Northeast 119 137 7,000  Level Miami Center
03:56PM 26.4478 -81.2094 45° Northeast 119 137 7,000  Level Miami Center
03:57PM 26.4717 -81.1847 43° Northeast 119 137 7,000  Level Miami Center
03:58PM 26.4933 -81.1531 53° Northeast 119 137 7,000  Level Miami Center
03:59PM 26.5153 -81.1236 50° Northeast 119 137 7,000  Level Miami Center
04:00PM 26.5328 -81.0964 54° Northeast 119 137 7,000  Level Miami Center
04:01PM 26.5544 -81.0647 53° Northeast 119 137 7,000  Level Miami Center
04:02PM 26.5744 -81.0283 58° Northeast 124 143 7,000  Level Miami Center
04:03PM 26.5961 -80.9989 51° Northeast 119 137 7,000  Level Miami Center
04:04PM 26.6158 -80.9672 55° Northeast 119 137 7,000 50 Level Miami Center
04:05PM 26.6353 -80.9400 51° Northeast 119 137 7,100  Climbing Miami Center
04:06PM 26.6572 -80.9058 54° Northeast 119 137 7,000 -50 Descending Miami Center
04:07PM 26.6767 -80.8739 56° Northeast 124 143 7,000  Level Miami Center
04:08PM 26.6944 -80.8444 56° Northeast 124 143 7,000  Level Miami Center
04:09PM 26.7119 -80.8147 57° Northeast 124 143 7,000 50 Level Miami Center
04:10PM 26.7294 -80.7828 58° Northeast 124 143 7,100  Climbing Miami Center
04:11PM 26.7158 -80.7450 112° Southeast 110 127 7,000 -250 Descending Miami Center
04:12PM 26.6981 -80.7003 114° Southeast 123 142 6,600 -300 Descending Miami Center
04:13PM 26.6803 -80.6625 118° Southeast 142 163 6,400 -250 Descending Miami Center
04:14PM 26.6625 -80.6225 116° Southeast 137 158 6,100 -350 Descending Miami Center
04:15PM 26.6469 -80.5825 114° Southeast 137 158 5,700 -400 Descending Miami Center
04:16PM 26.6250 -80.5469 125° Southeast 137 158 5,300 -273 Descending Miami Center
04:18PM 26.6291 -80.5074 83° East  Level FlightAware Approximate
04:25PM 26.5049 -80.3089 127° Southeast  Level Estimated
04:26PM 26.4932 -80.2768 112° Southeast  Level FlightAware Approximate
04:27PM 26.4745 -80.2493 132° Southeast  Level Estimated
04:28PM 26.4554 -80.2220 128° Southeast  Level FlightAware Approximate
04:29PM 26.4364 -80.1948 128° Southeast  Level FlightAware Approximate
04:29PM 26.4550 -80.1403 180° South 75 86 2,000  Level Miami Center
04:29PM 26.4467 -80.1400 178° South 111 128 2,000  Level Miami Center
04:30PM 26.4179 -80.1670 119° Southeast  Level Estimated
04:30PM 26.4333 -80.1697 243° Southwest 110 127 2,000  Level Miami Center
04:31PM 26.4025 -80.1371 120° Southeast  Level FlightAware Approximate
04:31PM 26.4267 -80.1975 255° West 105 121 2,000  Level Miami Center
04:32PM 26.3816 -80.1115 180° South  Level Estimated
04:32PM 26.4053 -80.2153 217° Southwest 111 128 1,900  Level Miami Center
04:33PM 26.3785 -80.1077 180° South  Level Estimated
04:33PM 26.3739 -80.2122 175° South 108 124 1,800  Level Miami Center
04:34PM 26.3785 -80.1077 180° South  Level Estimated
04:34PM 26.3642 -80.1817 110° East 89 102 1,300  Level Miami Center
04:35PM 26.3586 -80.1561 104° East 82 94 1,000 -393 Descending Miami Center
04:36PM 26.3592 -80.1331 88° East 78 90 500 -500 Descending Miami Center
04:38PM 26.3667 -80.1000 180° South  Level FlightAware Approximate
04:45PM 26.3785 -80.1077 180° South  Level Estimated